sensor_id;sensor_type;location;lat;lon;timestamp;temperature;humidity
8408;DHT22;4241;48.452;9.216;2023-01-10T00:02:27;4.30;99.90
8408;DHT22;4241;48.452;9.216;2023-01-10T00:04:54;4.30;99.90
8408;DHT22;4241;48.452;9.216;2023-01-10T00:07:20;4.30;99.90
8408;DHT22;4241;48.452;9.216;2023-01-10T00:09:47;4.20;99.90
8408;DHT22;4241;48.452;9.216;2023-01-10T00:12:14;4.20;99.90
8408;DHT22;4241;48.452;9.216;2023-01-10T00:14:58;4.20;99.90
8408;DHT22;4241;48.452;9.216;2023-01-10T00:17:26;4.10;99.90
8408;DHT22;4241;48.452;9.216;2023-01-10T00:19:53;4.10;99.90
8408;DHT22;4241;48.452;9.216;2023-01-10T00:22:20;4.00;99.90
8408;DHT22;4241;48.452;9.216;2023-01-10T00:24:50;4.10;99.90
8408;DHT22;4241;48.452;9.216;2023-01-10T00:29:47;4.10;99.90
8408;DHT22;4241;48.452;9.216;2023-01-10T00:32:17;4.00;99.90
8408;DHT22;4241;48.452;9.216;2023-01-10T00:34:45;4.00;99.90
8408;DHT22;4241;48.452;9.216;2023-01-10T00:37:12;4.00;99.90
8408;DHT22;4241;48.452;9.216;2023-01-10T00:39:39;4.00;99.90
8408;DHT22;4241;48.452;9.216;2023-01-10T00:42:05;4.00;99.90
8408;DHT22;4241;48.452;9.216;2023-01-10T00:44:50;3.90;99.90
8408;DHT22;4241;48.452;9.216;2023-01-10T00:47:17;3.90;99.90
8408;DHT22;4241;48.452;9.216;2023-01-10T00:49:45;3.80;99.90
8408;DHT22;4241;48.452;9.216;2023-01-10T00:52:12;4.00;99.90
8408;DHT22;4241;48.452;9.216;2023-01-10T00:54:38;3.90;99.90
8408;DHT22;4241;48.452;9.216;2023-01-10T00:57:05;3.80;99.90
8408;DHT22;4241;48.452;9.216;2023-01-10T00:59:32;3.90;99.90
8408;DHT22;4241;48.452;9.216;2023-01-10T01:01:59;3.80;99.90
8408;DHT22;4241;48.452;9.216;2023-01-10T01:04:26;3.80;99.90
8408;DHT22;4241;48.452;9.216;2023-01-10T01:06:54;3.80;99.90
8408;DHT22;4241;48.452;9.216;2023-01-10T01:09:20;3.80;99.90
8408;DHT22;4241;48.452;9.216;2023-01-10T01:11:47;3.70;99.90
8408;DHT22;4241;48.452;9.216;2023-01-10T01:14:14;3.70;99.90
8408;DHT22;4241;48.452;9.216;2023-01-10T01:16:41;3.60;99.90
8408;DHT22;4241;48.452;9.216;2023-01-10T01:19:08;3.60;99.90
8408;DHT22;4241;48.452;9.216;2023-01-10T01:21:35;3.40;99.90
8408;DHT22;4241;48.452;9.216;2023-01-10T01:24:03;3.50;99.90
8408;DHT22;4241;48.452;9.216;2023-01-10T01:28:59;3.50;99.90
8408;DHT22;4241;48.452;9.216;2023-01-10T01:31:26;3.60;99.90
8408;DHT22;4241;48.452;9.216;2023-01-10T01:33:53;3.40;99.90
8408;DHT22;4241;48.452;9.216;2023-01-10T01:36:20;3.60;99.90
8408;DHT22;4241;48.452;9.216;2023-01-10T01:38:46;3.60;99.90
8408;DHT22;4241;48.452;9.216;2023-01-10T01:41:14;3.80;99.90
8408;DHT22;4241;48.452;9.216;2023-01-10T01:44:01;3.60;99.90
8408;DHT22;4241;48.452;9.216;2023-01-10T01:46:29;3.60;99.90
8408;DHT22;4241;48.452;9.216;2023-01-10T01:48:57;3.60;99.90
8408;DHT22;4241;48.452;9.216;2023-01-10T01:51:26;3.50;99.90
8408;DHT22;4241;48.452;9.216;2023-01-10T01:53:57;3.60;99.90
8408;DHT22;4241;48.452;9.216;2023-01-10T01:56:31;3.40;99.90
8408;DHT22;4241;48.452;9.216;2023-01-10T01:59:01;3.60;99.90
8408;DHT22;4241;48.452;9.216;2023-01-10T02:01:31;3.60;99.90
8408;DHT22;4241;48.452;9.216;2023-01-10T02:04:05;3.40;99.90
8408;DHT22;4241;48.452;9.216;2023-01-10T02:06:33;3.50;99.90
8408;DHT22;4241;48.452;9.216;2023-01-10T02:09:07;3.50;99.90
8408;DHT22;4241;48.452;9.216;2023-01-10T02:11:39;3.50;99.90
8408;DHT22;4241;48.452;9.216;2023-01-10T02:14:07;3.50;99.90
8408;DHT22;4241;48.452;9.216;2023-01-10T02:16:35;3.50;99.90
8408;DHT22;4241;48.452;9.216;2023-01-10T02:19:04;3.40;99.90
8408;DHT22;4241;48.452;9.216;2023-01-10T02:22:10;3.50;99.90
8408;DHT22;4241;48.452;9.216;2023-01-10T02:25:02;3.50;99.90
8408;DHT22;4241;48.452;9.216;2023-01-10T02:27:46;3.50;99.90
8408;DHT22;4241;48.452;9.216;2023-01-10T02:30:45;3.50;99.90
8408;DHT22;4241;48.452;9.216;2023-01-10T02:33:21;3.50;99.90
8408;DHT22;4241;48.452;9.216;2023-01-10T02:36:04;3.50;99.90
8408;DHT22;4241;48.452;9.216;2023-01-10T02:38:41;3.50;99.90
8408;DHT22;4241;48.452;9.216;2023-01-10T02:41:17;3.50;99.90
8408;DHT22;4241;48.452;9.216;2023-01-10T02:43:49;3.40;99.90
8408;DHT22;4241;48.452;9.216;2023-01-10T02:46:19;3.50;99.90
8408;DHT22;4241;48.452;9.216;2023-01-10T02:48:51;3.50;99.90
8408;DHT22;4241;48.452;9.216;2023-01-10T02:51:20;3.50;99.90
8408;DHT22;4241;48.452;9.216;2023-01-10T02:53:49;3.50;99.90
8408;DHT22;4241;48.452;9.216;2023-01-10T02:56:33;3.40;99.90
8408;DHT22;4241;48.452;9.216;2023-01-10T02:59:45;3.40;99.90
8408;DHT22;4241;48.452;9.216;2023-01-10T03:02:21;3.50;99.90
8408;DHT22;4241;48.452;9.216;2023-01-10T03:05:00;3.50;99.90
8408;DHT22;4241;48.452;9.216;2023-01-10T03:07:34;3.40;99.90
8408;DHT22;4241;48.452;9.216;2023-01-10T03:10:06;3.50;99.90
8408;DHT22;4241;48.452;9.216;2023-01-10T03:12:38;3.50;99.90
8408;DHT22;4241;48.452;9.216;2023-01-10T03:15:09;3.50;99.90
8408;DHT22;4241;48.452;9.216;2023-01-10T03:17:38;3.40;99.90
8408;DHT22;4241;48.452;9.216;2023-01-10T03:20:10;3.40;99.90
8408;DHT22;4241;48.452;9.216;2023-01-10T03:22:38;3.40;99.90
8408;DHT22;4241;48.452;9.216;2023-01-10T03:25:07;3.40;99.90
8408;DHT22;4241;48.452;9.216;2023-01-10T03:27:39;3.30;99.90
8408;DHT22;4241;48.452;9.216;2023-01-10T03:30:14;3.40;99.90
8408;DHT22;4241;48.452;9.216;2023-01-10T03:32:42;3.40;99.90
8408;DHT22;4241;48.452;9.216;2023-01-10T03:35:11;3.40;99.90
8408;DHT22;4241;48.452;9.216;2023-01-10T03:37:44;3.40;99.90
8408;DHT22;4241;48.452;9.216;2023-01-10T03:40:19;3.30;99.90
8408;DHT22;4241;48.452;9.216;2023-01-10T03:42:52;3.30;99.90
8408;DHT22;4241;48.452;9.216;2023-01-10T03:45:42;3.30;99.90
8408;DHT22;4241;48.452;9.216;2023-01-10T03:48:10;3.40;99.90
8408;DHT22;4241;48.452;9.216;2023-01-10T03:50:39;3.30;99.90
8408;DHT22;4241;48.452;9.216;2023-01-10T03:53:12;3.20;99.90
8408;DHT22;4241;48.452;9.216;2023-01-10T03:55:41;3.30;99.90
8408;DHT22;4241;48.452;9.216;2023-01-10T03:58:08;3.30;99.90
8408;DHT22;4241;48.452;9.216;2023-01-10T04:00:35;3.30;99.90
8408;DHT22;4241;48.452;9.216;2023-01-10T04:03:02;3.30;99.90
8408;DHT22;4241;48.452;9.216;2023-01-10T04:05:29;3.30;99.90
8408;DHT22;4241;48.452;9.216;2023-01-10T04:07:57;3.30;99.90
8408;DHT22;4241;48.452;9.216;2023-01-10T04:10:23;3.30;99.90
8408;DHT22;4241;48.452;9.216;2023-01-10T04:12:51;3.20;99.90
8408;DHT22;4241;48.452;9.216;2023-01-10T04:15:18;3.20;99.90
8408;DHT22;4241;48.452;9.216;2023-01-10T04:17:46;3.20;99.90
8408;DHT22;4241;48.452;9.216;2023-01-10T04:20:16;3.20;99.90
8408;DHT22;4241;48.452;9.216;2023-01-10T04:22:44;3.20;99.90
8408;DHT22;4241;48.452;9.216;2023-01-10T04:25:12;3.20;99.90
8408;DHT22;4241;48.452;9.216;2023-01-10T04:27:39;3.20;99.90
8408;DHT22;4241;48.452;9.216;2023-01-10T04:30:07;3.20;99.90
8408;DHT22;4241;48.452;9.216;2023-01-10T04:32:33;3.20;99.90
8408;DHT22;4241;48.452;9.216;2023-01-10T04:35:00;3.30;99.90
8408;DHT22;4241;48.452;9.216;2023-01-10T04:37:27;3.30;99.90
8408;DHT22;4241;48.452;9.216;2023-01-10T04:39:54;3.40;99.90
8408;DHT22;4241;48.452;9.216;2023-01-10T04:42:22;3.20;99.90
8408;DHT22;4241;48.452;9.216;2023-01-10T04:44:49;3.30;99.90
8408;DHT22;4241;48.452;9.216;2023-01-10T04:47:15;3.20;99.90
8408;DHT22;4241;48.452;9.216;2023-01-10T04:49:42;3.10;99.90
8408;DHT22;4241;48.452;9.216;2023-01-10T04:52:09;3.20;99.90
8408;DHT22;4241;48.452;9.216;2023-01-10T04:54:36;3.20;99.90
8408;DHT22;4241;48.452;9.216;2023-01-10T04:57:03;3.20;99.90
8408;DHT22;4241;48.452;9.216;2023-01-10T04:59:38;3.30;99.90
8408;DHT22;4241;48.452;9.216;2023-01-10T05:02:04;3.30;99.90
8408;DHT22;4241;48.452;9.216;2023-01-10T05:04:31;3.30;99.90
8408;DHT22;4241;48.452;9.216;2023-01-10T05:06:58;3.20;99.90
8408;DHT22;4241;48.452;9.216;2023-01-10T05:09:25;3.20;99.90
8408;DHT22;4241;48.452;9.216;2023-01-10T05:11:51;3.20;99.90
8408;DHT22;4241;48.452;9.216;2023-01-10T05:14:18;3.30;99.90
8408;DHT22;4241;48.452;9.216;2023-01-10T05:16:46;3.10;99.90
8408;DHT22;4241;48.452;9.216;2023-01-10T05:19:13;3.20;99.90
8408;DHT22;4241;48.452;9.216;2023-01-10T05:21:40;3.20;99.90
8408;DHT22;4241;48.452;9.216;2023-01-10T05:24:08;3.20;99.90
8408;DHT22;4241;48.452;9.216;2023-01-10T05:26:34;3.20;99.90
8408;DHT22;4241;48.452;9.216;2023-01-10T05:29:01;3.20;99.90
8408;DHT22;4241;48.452;9.216;2023-01-10T05:31:28;3.30;99.90
8408;DHT22;4241;48.452;9.216;2023-01-10T05:33:56;3.30;99.90
8408;DHT22;4241;48.452;9.216;2023-01-10T05:36:23;3.30;99.90
8408;DHT22;4241;48.452;9.216;2023-01-10T05:38:50;3.20;99.90
8408;DHT22;4241;48.452;9.216;2023-01-10T05:41:16;3.20;99.90
8408;DHT22;4241;48.452;9.216;2023-01-10T05:43:43;3.20;99.90
8408;DHT22;4241;48.452;9.216;2023-01-10T05:46:10;3.10;99.90
8408;DHT22;4241;48.452;9.216;2023-01-10T05:48:37;3.10;99.90
8408;DHT22;4241;48.452;9.216;2023-01-10T05:51:05;3.20;99.90
8408;DHT22;4241;48.452;9.216;2023-01-10T05:53:32;3.20;99.90
8408;DHT22;4241;48.452;9.216;2023-01-10T05:56:00;3.20;99.90
8408;DHT22;4241;48.452;9.216;2023-01-10T05:58:28;3.20;99.90
8408;DHT22;4241;48.452;9.216;2023-01-10T06:00:56;3.20;99.90
8408;DHT22;4241;48.452;9.216;2023-01-10T06:03:23;3.20;99.90
8408;DHT22;4241;48.452;9.216;2023-01-10T06:05:51;3.20;99.90
8408;DHT22;4241;48.452;9.216;2023-01-10T06:08:19;3.30;99.90
8408;DHT22;4241;48.452;9.216;2023-01-10T06:10:46;3.20;99.90
8408;DHT22;4241;48.452;9.216;2023-01-10T06:13:12;3.20;99.90
8408;DHT22;4241;48.452;9.216;2023-01-10T06:15:39;3.20;99.90
8408;DHT22;4241;48.452;9.216;2023-01-10T06:18:06;3.20;99.90
8408;DHT22;4241;48.452;9.216;2023-01-10T06:20:33;3.20;99.90
8408;DHT22;4241;48.452;9.216;2023-01-10T06:23:00;3.20;99.90
8408;DHT22;4241;48.452;9.216;2023-01-10T06:25:30;3.20;99.90
8408;DHT22;4241;48.452;9.216;2023-01-10T06:30:25;3.30;99.90
8408;DHT22;4241;48.452;9.216;2023-01-10T06:35:19;3.30;99.90
8408;DHT22;4241;48.452;9.216;2023-01-10T06:37:46;3.30;99.90
8408;DHT22;4241;48.452;9.216;2023-01-10T06:40:13;3.30;99.90
8408;DHT22;4241;48.452;9.216;2023-01-10T06:42:41;3.30;99.90
8408;DHT22;4241;48.452;9.216;2023-01-10T06:45:08;3.40;99.90
8408;DHT22;4241;48.452;9.216;2023-01-10T06:47:35;3.40;99.90
8408;DHT22;4241;48.452;9.216;2023-01-10T06:50:04;3.40;99.90
8408;DHT22;4241;48.452;9.216;2023-01-10T06:52:31;3.40;99.90
8408;DHT22;4241;48.452;9.216;2023-01-10T06:54:58;3.50;99.90
8408;DHT22;4241;48.452;9.216;2023-01-10T06:59:54;3.40;99.90
8408;DHT22;4241;48.452;9.216;2023-01-10T07:04:48;3.30;99.90
8408;DHT22;4241;48.452;9.216;2023-01-10T07:07:14;3.30;99.90
8408;DHT22;4241;48.452;9.216;2023-01-10T07:12:08;3.40;99.90
8408;DHT22;4241;48.452;9.216;2023-01-10T07:14:35;3.40;99.90
8408;DHT22;4241;48.452;9.216;2023-01-10T07:17:04;3.50;99.90
8408;DHT22;4241;48.452;9.216;2023-01-10T07:19:30;3.50;99.90
8408;DHT22;4241;48.452;9.216;2023-01-10T07:21:57;3.70;99.90
8408;DHT22;4241;48.452;9.216;2023-01-10T07:24:24;3.50;99.90
8408;DHT22;4241;48.452;9.216;2023-01-10T07:26:53;3.50;99.90
8408;DHT22;4241;48.452;9.216;2023-01-10T07:29:20;3.80;99.90
8408;DHT22;4241;48.452;9.216;2023-01-10T07:31:47;3.50;99.90
8408;DHT22;4241;48.452;9.216;2023-01-10T07:34:15;3.50;99.90
8408;DHT22;4241;48.452;9.216;2023-01-10T07:36:42;3.40;99.90
8408;DHT22;4241;48.452;9.216;2023-01-10T07:39:08;3.60;99.90
8408;DHT22;4241;48.452;9.216;2023-01-10T07:41:35;3.60;99.90
8408;DHT22;4241;48.452;9.216;2023-01-10T07:44:02;3.80;99.90
8408;DHT22;4241;48.452;9.216;2023-01-10T07:46:29;3.60;99.90
8408;DHT22;4241;48.452;9.216;2023-01-10T07:48:56;3.70;99.90
8408;DHT22;4241;48.452;9.216;2023-01-10T07:51:24;3.70;99.90
8408;DHT22;4241;48.452;9.216;2023-01-10T07:53:51;3.80;99.90
8408;DHT22;4241;48.452;9.216;2023-01-10T07:56:17;3.80;99.90
8408;DHT22;4241;48.452;9.216;2023-01-10T07:58:44;3.80;99.90
8408;DHT22;4241;48.452;9.216;2023-01-10T08:01:11;3.80;99.90
8408;DHT22;4241;48.452;9.216;2023-01-10T08:03:38;3.80;99.90
8408;DHT22;4241;48.452;9.216;2023-01-10T08:06:07;3.80;99.90
8408;DHT22;4241;48.452;9.216;2023-01-10T08:08:37;3.80;99.90
8408;DHT22;4241;48.452;9.216;2023-01-10T08:11:04;3.90;99.90
8408;DHT22;4241;48.452;9.216;2023-01-10T08:13:31;3.90;99.90
8408;DHT22;4241;48.452;9.216;2023-01-10T08:15:58;4.00;99.90
8408;DHT22;4241;48.452;9.216;2023-01-10T08:18:25;3.90;99.90
8408;DHT22;4241;48.452;9.216;2023-01-10T08:20:53;3.90;99.90
8408;DHT22;4241;48.452;9.216;2023-01-10T08:23:20;3.90;99.90
8408;DHT22;4241;48.452;9.216;2023-01-10T08:25:48;4.00;99.90
8408;DHT22;4241;48.452;9.216;2023-01-10T08:28:16;4.00;99.90
8408;DHT22;4241;48.452;9.216;2023-01-10T08:30:43;4.00;99.90
8408;DHT22;4241;48.452;9.216;2023-01-10T08:33:10;4.10;99.90
8408;DHT22;4241;48.452;9.216;2023-01-10T08:35:37;4.10;99.90
8408;DHT22;4241;48.452;9.216;2023-01-10T08:38:04;4.20;99.90
8408;DHT22;4241;48.452;9.216;2023-01-10T08:40:31;4.20;99.90
8408;DHT22;4241;48.452;9.216;2023-01-10T08:43:01;3.90;99.90
8408;DHT22;4241;48.452;9.216;2023-01-10T08:45:28;4.20;99.90
8408;DHT22;4241;48.452;9.216;2023-01-10T08:47:55;4.20;99.90
8408;DHT22;4241;48.452;9.216;2023-01-10T08:50:24;4.40;99.90
8408;DHT22;4241;48.452;9.216;2023-01-10T08:52:51;4.20;99.90
8408;DHT22;4241;48.452;9.216;2023-01-10T08:55:18;4.20;99.90
8408;DHT22;4241;48.452;9.216;2023-01-10T08:57:45;4.20;99.90
8408;DHT22;4241;48.452;9.216;2023-01-10T09:00:14;4.30;99.90
8408;DHT22;4241;48.452;9.216;2023-01-10T09:02:41;4.40;99.90
8408;DHT22;4241;48.452;9.216;2023-01-10T09:05:09;4.40;99.90
8408;DHT22;4241;48.452;9.216;2023-01-10T09:07:36;4.50;99.90
8408;DHT22;4241;48.452;9.216;2023-01-10T09:10:03;4.50;99.90
8408;DHT22;4241;48.452;9.216;2023-01-10T09:12:30;4.40;99.90
8408;DHT22;4241;48.452;9.216;2023-01-10T09:15:16;4.30;99.90
8408;DHT22;4241;48.452;9.216;2023-01-10T09:17:43;4.50;99.90
8408;DHT22;4241;48.452;9.216;2023-01-10T09:20:10;4.40;99.90
8408;DHT22;4241;48.452;9.216;2023-01-10T09:22:37;4.40;99.90
8408;DHT22;4241;48.452;9.216;2023-01-10T09:25:05;4.50;99.90
8408;DHT22;4241;48.452;9.216;2023-01-10T09:27:32;4.50;99.90
8408;DHT22;4241;48.452;9.216;2023-01-10T09:29:59;4.60;99.90
8408;DHT22;4241;48.452;9.216;2023-01-10T09:32:27;4.80;99.90
8408;DHT22;4241;48.452;9.216;2023-01-10T09:34:53;4.60;99.90
8408;DHT22;4241;48.452;9.216;2023-01-10T09:37:20;4.70;99.90
8408;DHT22;4241;48.452;9.216;2023-01-10T09:42:34;4.70;99.90
8408;DHT22;4241;48.452;9.216;2023-01-10T09:45:13;4.80;99.90
8408;DHT22;4241;48.452;9.216;2023-01-10T09:47:49;4.70;99.90
8408;DHT22;4241;48.452;9.216;2023-01-10T09:50:23;4.60;99.90
8408;DHT22;4241;48.452;9.216;2023-01-10T09:52:56;4.80;99.90
8408;DHT22;4241;48.452;9.216;2023-01-10T09:55:26;4.80;99.90
8408;DHT22;4241;48.452;9.216;2023-01-10T09:57:55;4.80;99.90
8408;DHT22;4241;48.452;9.216;2023-01-10T10:00:30;5.00;99.90
8408;DHT22;4241;48.452;9.216;2023-01-10T10:03:02;5.00;99.90
8408;DHT22;4241;48.452;9.216;2023-01-10T10:05:31;5.00;99.90
8408;DHT22;4241;48.452;9.216;2023-01-10T10:08:00;5.00;99.90
8408;DHT22;4241;48.452;9.216;2023-01-10T10:10:33;5.10;99.90
8408;DHT22;4241;48.452;9.216;2023-01-10T10:13:16;5.20;99.90
8408;DHT22;4241;48.452;9.216;2023-01-10T10:15:50;5.20;99.90
8408;DHT22;4241;48.452;9.216;2023-01-10T10:18:29;5.20;99.90
8408;DHT22;4241;48.452;9.216;2023-01-10T10:21:03;5.20;99.90
8408;DHT22;4241;48.452;9.216;2023-01-10T10:23:44;5.50;99.90
8408;DHT22;4241;48.452;9.216;2023-01-10T10:26:18;5.20;99.90
8408;DHT22;4241;48.452;9.216;2023-01-10T10:32:09;5.30;99.90
8408;DHT22;4241;48.452;9.216;2023-01-10T10:34:43;5.30;99.90
8408;DHT22;4241;48.452;9.216;2023-01-10T10:37:16;5.40;99.90
8408;DHT22;4241;48.452;9.216;2023-01-10T10:39:50;5.50;99.90
8408;DHT22;4241;48.452;9.216;2023-01-10T10:42:18;5.40;99.90
8408;DHT22;4241;48.452;9.216;2023-01-10T10:44:50;5.70;99.90
8408;DHT22;4241;48.452;9.216;2023-01-10T10:47:20;5.60;99.90
8408;DHT22;4241;48.452;9.216;2023-01-10T10:49:53;5.60;99.90
8408;DHT22;4241;48.452;9.216;2023-01-10T10:52:25;5.70;99.90
8408;DHT22;4241;48.452;9.216;2023-01-10T10:54:53;5.60;99.90
8408;DHT22;4241;48.452;9.216;2023-01-10T10:57:23;5.60;99.90
8408;DHT22;4241;48.452;9.216;2023-01-10T10:59:51;5.60;99.90
8408;DHT22;4241;48.452;9.216;2023-01-10T11:02:22;5.60;99.90
8408;DHT22;4241;48.452;9.216;2023-01-10T11:04:53;5.70;99.90
8408;DHT22;4241;48.452;9.216;2023-01-10T11:07:21;5.80;99.90
8408;DHT22;4241;48.452;9.216;2023-01-10T11:09:49;6.00;99.90
8408;DHT22;4241;48.452;9.216;2023-01-10T11:12:32;6.00;99.90
8408;DHT22;4241;48.452;9.216;2023-01-10T11:14:59;6.00;99.90
8408;DHT22;4241;48.452;9.216;2023-01-10T11:17:28;6.00;99.90
8408;DHT22;4241;48.452;9.216;2023-01-10T11:19:59;5.90;99.90
8408;DHT22;4241;48.452;9.216;2023-01-10T11:22:28;5.90;99.90
8408;DHT22;4241;48.452;9.216;2023-01-10T11:24:57;5.90;99.90
8408;DHT22;4241;48.452;9.216;2023-01-10T11:27:26;6.00;99.90
8408;DHT22;4241;48.452;9.216;2023-01-10T11:29:56;6.00;99.90
8408;DHT22;4241;48.452;9.216;2023-01-10T11:32:31;6.10;99.90
8408;DHT22;4241;48.452;9.216;2023-01-10T11:35:01;6.00;99.90
8408;DHT22;4241;48.452;9.216;2023-01-10T11:37:29;6.00;99.90
8408;DHT22;4241;48.452;9.216;2023-01-10T11:40:18;6.00;99.90
8408;DHT22;4241;48.452;9.216;2023-01-10T11:42:48;6.10;99.90
8408;DHT22;4241;48.452;9.216;2023-01-10T11:45:26;6.30;99.90
8408;DHT22;4241;48.452;9.216;2023-01-10T11:47:55;6.40;99.90
8408;DHT22;4241;48.452;9.216;2023-01-10T11:50:27;6.40;99.90
8408;DHT22;4241;48.452;9.216;2023-01-10T11:52:55;6.50;99.90
8408;DHT22;4241;48.452;9.216;2023-01-10T11:55:24;6.60;99.90
8408;DHT22;4241;48.452;9.216;2023-01-10T11:57:58;6.60;99.90
8408;DHT22;4241;48.452;9.216;2023-01-10T12:00:35;6.50;99.90
8408;DHT22;4241;48.452;9.216;2023-01-10T12:03:15;6.50;99.90
8408;DHT22;4241;48.452;9.216;2023-01-10T12:05:50;6.50;99.90
8408;DHT22;4241;48.452;9.216;2023-01-10T12:08:24;6.50;99.90
8408;DHT22;4241;48.452;9.216;2023-01-10T12:10:57;6.40;99.90
8408;DHT22;4241;48.452;9.216;2023-01-10T12:13:27;6.40;99.90
8408;DHT22;4241;48.452;9.216;2023-01-10T12:16:17;6.30;99.90
8408;DHT22;4241;48.452;9.216;2023-01-10T12:18:47;6.20;99.90
8408;DHT22;4241;48.452;9.216;2023-01-10T12:21:20;6.30;99.90
8408;DHT22;4241;48.452;9.216;2023-01-10T12:23:48;6.30;99.90
8408;DHT22;4241;48.452;9.216;2023-01-10T12:26:16;6.30;99.90
8408;DHT22;4241;48.452;9.216;2023-01-10T12:28:49;6.10;99.90
8408;DHT22;4241;48.452;9.216;2023-01-10T12:31:17;6.00;99.90
8408;DHT22;4241;48.452;9.216;2023-01-10T12:33:49;6.10;99.90
8408;DHT22;4241;48.452;9.216;2023-01-10T12:36:29;6.00;99.90
8408;DHT22;4241;48.452;9.216;2023-01-10T12:39:04;6.10;99.90
8408;DHT22;4241;48.452;9.216;2023-01-10T12:41:42;6.00;99.90
8408;DHT22;4241;48.452;9.216;2023-01-10T12:44:33;6.00;99.90
8408;DHT22;4241;48.452;9.216;2023-01-10T12:47:04;6.00;99.90
8408;DHT22;4241;48.452;9.216;2023-01-10T12:49:36;6.40;99.90
8408;DHT22;4241;48.452;9.216;2023-01-10T12:52:11;6.20;99.90
8408;DHT22;4241;48.452;9.216;2023-01-10T12:54:39;6.10;99.90
8408;DHT22;4241;48.452;9.216;2023-01-10T12:57:22;6.20;99.90
8408;DHT22;4241;48.452;9.216;2023-01-10T12:59:50;6.20;99.90
8408;DHT22;4241;48.452;9.216;2023-01-10T13:02:20;6.20;99.90
8408;DHT22;4241;48.452;9.216;2023-01-10T13:04:51;6.20;99.90
8408;DHT22;4241;48.452;9.216;2023-01-10T13:07:21;6.20;99.90
8408;DHT22;4241;48.452;9.216;2023-01-10T13:09:50;6.20;99.90
8408;DHT22;4241;48.452;9.216;2023-01-10T13:12:21;6.20;99.90
8408;DHT22;4241;48.452;9.216;2023-01-10T13:14:53;6.20;99.90
8408;DHT22;4241;48.452;9.216;2023-01-10T13:17:30;6.40;99.90
8408;DHT22;4241;48.452;9.216;2023-01-10T13:23:22;6.40;99.90
8408;DHT22;4241;48.452;9.216;2023-01-10T13:25:57;6.50;99.90
8408;DHT22;4241;48.452;9.216;2023-01-10T13:28:26;6.40;99.90
8408;DHT22;4241;48.452;9.216;2023-01-10T13:30:55;6.50;99.90
8408;DHT22;4241;48.452;9.216;2023-01-10T13:33:24;6.50;99.90
8408;DHT22;4241;48.452;9.216;2023-01-10T13:35:53;6.40;99.90
8408;DHT22;4241;48.452;9.216;2023-01-10T13:38:25;6.50;99.90
8408;DHT22;4241;48.452;9.216;2023-01-10T13:40:58;6.30;99.90
8408;DHT22;4241;48.452;9.216;2023-01-10T13:43:38;6.40;99.90
8408;DHT22;4241;48.452;9.216;2023-01-10T13:46:33;6.20;99.90
8408;DHT22;4241;48.452;9.216;2023-01-10T13:49:23;6.30;99.90
8408;DHT22;4241;48.452;9.216;2023-01-10T13:55:30;6.20;99.90
8408;DHT22;4241;48.452;9.216;2023-01-10T13:58:02;6.20;99.90
8408;DHT22;4241;48.452;9.216;2023-01-10T14:00:45;6.20;99.90
8408;DHT22;4241;48.452;9.216;2023-01-10T14:03:43;6.20;99.90
8408;DHT22;4241;48.452;9.216;2023-01-10T14:06:34;6.30;99.90
8408;DHT22;4241;48.452;9.216;2023-01-10T14:09:28;6.20;99.90
8408;DHT22;4241;48.452;9.216;2023-01-10T14:11:58;6.30;99.90
8408;DHT22;4241;48.452;9.216;2023-01-10T14:14:27;6.30;99.90
8408;DHT22;4241;48.452;9.216;2023-01-10T14:16:57;6.30;99.90
8408;DHT22;4241;48.452;9.216;2023-01-10T14:19:26;6.20;99.90
8408;DHT22;4241;48.452;9.216;2023-01-10T14:21:55;6.10;99.90
8408;DHT22;4241;48.452;9.216;2023-01-10T14:24:24;6.20;99.90
8408;DHT22;4241;48.452;9.216;2023-01-10T14:26:52;6.30;99.90
8408;DHT22;4241;48.452;9.216;2023-01-10T14:29:21;6.40;99.90
8408;DHT22;4241;48.452;9.216;2023-01-10T14:31:49;6.30;99.90
8408;DHT22;4241;48.452;9.216;2023-01-10T14:34:20;6.10;99.90
8408;DHT22;4241;48.452;9.216;2023-01-10T14:36:52;6.10;99.90
8408;DHT22;4241;48.452;9.216;2023-01-10T14:39:21;6.10;99.90
8408;DHT22;4241;48.452;9.216;2023-01-10T14:41:50;6.10;99.90
8408;DHT22;4241;48.452;9.216;2023-01-10T14:44:26;6.00;99.90
8408;DHT22;4241;48.452;9.216;2023-01-10T14:46:56;6.00;99.90
8408;DHT22;4241;48.452;9.216;2023-01-10T14:49:25;6.10;99.90
8408;DHT22;4241;48.452;9.216;2023-01-10T14:51:53;5.90;99.90
8408;DHT22;4241;48.452;9.216;2023-01-10T14:54:25;5.90;99.90
8408;DHT22;4241;48.452;9.216;2023-01-10T14:56:54;5.90;99.90
8408;DHT22;4241;48.452;9.216;2023-01-10T14:59:24;5.90;99.90
8408;DHT22;4241;48.452;9.216;2023-01-10T15:01:53;5.90;99.90
8408;DHT22;4241;48.452;9.216;2023-01-10T15:04:23;6.00;99.90
8408;DHT22;4241;48.452;9.216;2023-01-10T15:06:53;5.90;99.90
8408;DHT22;4241;48.452;9.216;2023-01-10T15:09:20;5.90;99.90
8408;DHT22;4241;48.452;9.216;2023-01-10T15:11:48;5.80;99.90
8408;DHT22;4241;48.452;9.216;2023-01-10T15:14:17;5.90;99.90
8408;DHT22;4241;48.452;9.216;2023-01-10T15:16:51;5.90;99.90
8408;DHT22;4241;48.452;9.216;2023-01-10T15:19:21;5.90;99.90
8408;DHT22;4241;48.452;9.216;2023-01-10T15:21:49;5.80;99.90
8408;DHT22;4241;48.452;9.216;2023-01-10T15:24:29;5.80;99.90
8408;DHT22;4241;48.452;9.216;2023-01-10T15:26:57;5.70;99.90
8408;DHT22;4241;48.452;9.216;2023-01-10T15:29:25;5.70;99.90
8408;DHT22;4241;48.452;9.216;2023-01-10T15:32:01;5.70;99.90
8408;DHT22;4241;48.452;9.216;2023-01-10T15:34:29;5.70;99.90
8408;DHT22;4241;48.452;9.216;2023-01-10T15:36:59;5.60;99.90
8408;DHT22;4241;48.452;9.216;2023-01-10T15:39:29;5.60;99.90
8408;DHT22;4241;48.452;9.216;2023-01-10T15:41:58;5.50;99.90
8408;DHT22;4241;48.452;9.216;2023-01-10T15:44:35;5.40;99.90
8408;DHT22;4241;48.452;9.216;2023-01-10T15:47:04;5.50;99.90
8408;DHT22;4241;48.452;9.216;2023-01-10T15:49:32;5.50;99.90
8408;DHT22;4241;48.452;9.216;2023-01-10T15:51:59;5.50;99.90
8408;DHT22;4241;48.452;9.216;2023-01-10T15:54:28;5.50;99.90
8408;DHT22;4241;48.452;9.216;2023-01-10T15:57:04;5.40;99.90
8408;DHT22;4241;48.452;9.216;2023-01-10T15:59:34;5.40;99.90
8408;DHT22;4241;48.452;9.216;2023-01-10T16:02:16;5.30;99.90
8408;DHT22;4241;48.452;9.216;2023-01-10T16:04:47;5.30;99.90
8408;DHT22;4241;48.452;9.216;2023-01-10T16:07:18;5.10;99.90
8408;DHT22;4241;48.452;9.216;2023-01-10T16:09:49;5.10;99.90
8408;DHT22;4241;48.452;9.216;2023-01-10T16:12:27;5.10;99.90
8408;DHT22;4241;48.452;9.216;2023-01-10T16:15:17;5.10;99.90
8408;DHT22;4241;48.452;9.216;2023-01-10T16:17:47;5.20;99.90
8408;DHT22;4241;48.452;9.216;2023-01-10T16:20:15;5.00;99.90
8408;DHT22;4241;48.452;9.216;2023-01-10T16:22:43;4.90;99.90
8408;DHT22;4241;48.452;9.216;2023-01-10T16:25:15;4.90;99.90
8408;DHT22;4241;48.452;9.216;2023-01-10T16:27:42;4.80;99.90
8408;DHT22;4241;48.452;9.216;2023-01-10T16:30:23;4.80;99.90
8408;DHT22;4241;48.452;9.216;2023-01-10T16:32:52;4.80;99.90
8408;DHT22;4241;48.452;9.216;2023-01-10T16:35:19;4.70;99.90
8408;DHT22;4241;48.452;9.216;2023-01-10T16:37:46;4.70;99.90
8408;DHT22;4241;48.452;9.216;2023-01-10T16:40:20;4.80;99.90
8408;DHT22;4241;48.452;9.216;2023-01-10T16:42:47;4.60;99.90
8408;DHT22;4241;48.452;9.216;2023-01-10T16:45:31;4.70;99.90
8408;DHT22;4241;48.452;9.216;2023-01-10T16:48:00;4.70;99.90
8408;DHT22;4241;48.452;9.216;2023-01-10T16:50:27;4.70;99.90
8408;DHT22;4241;48.452;9.216;2023-01-10T16:52:54;4.60;99.90
8408;DHT22;4241;48.452;9.216;2023-01-10T16:55:24;4.80;99.90
8408;DHT22;4241;48.452;9.216;2023-01-10T16:57:52;4.80;99.90
8408;DHT22;4241;48.452;9.216;2023-01-10T17:00:19;4.70;99.90
8408;DHT22;4241;48.452;9.216;2023-01-10T17:02:47;4.50;99.90
8408;DHT22;4241;48.452;9.216;2023-01-10T17:05:15;4.70;99.90
8408;DHT22;4241;48.452;9.216;2023-01-10T17:07:42;4.60;99.90
8408;DHT22;4241;48.452;9.216;2023-01-10T17:10:10;4.70;99.90